Terminal Aerodrome Forecast
Issued by NWS

Home | Current Version | Previous Version | Graphics & Text | Print | Product List | Glossary On
Versions: 1 2 3 4 5 6 7 8 9 10 11 12 13 14 15 16 17 18 19 20 21 22 23 24 25 26 27 28 29 30 31 32 33 34 35 36 37 38 39 40 41 42 43 44 45 46 47 48 49 50
051
FTUS43 KLOT 091400 AAA
TAFGYY
TAF AMD
KGYY 091400Z 0914/1012 30015G22KT 6SM -SHSN SCT025 OVC040
      TEMPO 0914/0918 2SM -SHSN BKN015 OVC025
     FM091800 32015G22KT P6SM -SHSN BKN025 OVC040
      TEMPO 0918/0922 2SM -SHSN BKN015
     FM100800 32016G23KT P6SM SCT025 OVC060=

USA.gov is the U.S. government's official web portal to all federal, state and local government web resources and services.